createdAt,value
2022-08-25T00:00:10.846Z,3.60
2022-08-25T00:02:37.790Z,4.10
2022-08-25T00:05:05.447Z,4.10
2022-08-25T00:07:33.519Z,3.60
2022-08-25T00:10:00.278Z,3.83
2022-08-25T00:12:26.989Z,3.58
2022-08-25T00:14:54.707Z,3.60
2022-08-25T00:17:21.395Z,3.40
2022-08-25T00:19:48.094Z,3.47
2022-08-25T00:22:14.878Z,3.63
2022-08-25T00:24:41.683Z,3.30
2022-08-25T00:27:08.464Z,3.80
2022-08-25T00:29:37.889Z,3.60
2022-08-25T00:32:05.743Z,3.50
2022-08-25T00:34:36.066Z,3.83
2022-08-25T00:37:04.934Z,3.55
2022-08-25T00:39:31.744Z,3.85
2022-08-25T00:41:59.566Z,3.65
2022-08-25T00:44:29.526Z,3.65
2022-08-25T00:47:00.925Z,4.00
2022-08-25T00:49:41.769Z,3.83
2022-08-25T00:52:16.330Z,3.58
2022-08-25T00:54:51.107Z,3.95
2022-08-25T00:57:34.238Z,3.42
2022-08-25T01:00:08.057Z,3.80
2022-08-25T01:02:34.765Z,3.67
2022-08-25T01:05:01.742Z,3.58
2022-08-25T01:07:28.494Z,3.72
2022-08-25T01:09:55.615Z,3.85
2022-08-25T01:12:22.497Z,3.85
2022-08-25T01:14:50.109Z,4.28
2022-08-25T01:17:17.591Z,4.07
2022-08-25T01:19:44.691Z,3.80
2022-08-25T01:22:12.265Z,4.03
2022-08-25T01:24:59.349Z,4.00
2022-08-25T01:27:26.095Z,4.03
2022-08-25T01:29:54.460Z,3.53
2022-08-25T01:32:21.103Z,4.32
2022-08-25T01:34:48.159Z,4.03
2022-08-25T01:37:17.049Z,3.53
2022-08-25T01:39:44.344Z,4.45
2022-08-25T01:42:57.542Z,4.22
2022-08-25T01:47:52.570Z,3.60
2022-08-25T01:50:19.390Z,3.95
2022-08-25T01:52:58.402Z,3.95
2022-08-25T01:55:25.580Z,4.20
2022-08-25T01:57:52.690Z,3.55
2022-08-25T02:00:22.823Z,3.83
2022-08-25T02:02:54.180Z,4.40
2022-08-25T02:05:23.673Z,3.80
2022-08-25T02:07:50.723Z,4.63
2022-08-25T02:10:17.476Z,3.90
2022-08-25T02:12:44.223Z,4.10
2022-08-25T02:15:11.267Z,3.90
2022-08-25T02:17:38.008Z,3.65
2022-08-25T02:20:08.068Z,4.10
2022-08-25T02:58:35.450Z,4.13
2022-08-25T03:01:02.377Z,3.90
2022-08-25T03:03:29.610Z,4.05
2022-08-25T03:05:57.418Z,4.72
2022-08-25T03:08:24.879Z,4.30
2022-08-25T03:10:52.105Z,5.22
2022-08-25T03:13:19.042Z,4.10
2022-08-25T03:15:46.107Z,4.75
2022-08-25T03:18:15.998Z,4.05
2022-08-25T03:20:46.017Z,4.45
2022-08-25T03:23:13.078Z,4.03
2022-08-25T03:26:01.829Z,4.50
2022-08-25T03:28:31.171Z,4.07
2022-08-25T03:31:00.113Z,4.53
2022-08-25T03:33:30.695Z,3.95
2022-08-25T03:35:58.277Z,4.03
2022-08-25T03:38:26.074Z,4.07
2022-08-25T03:40:53.973Z,4.35
2022-08-25T03:43:21.307Z,4.38
2022-08-25T03:45:48.274Z,4.40
2022-08-25T03:48:16.299Z,3.60
2022-08-25T03:50:50.666Z,4.25
2022-08-25T03:53:19.595Z,4.47
2022-08-25T03:55:46.511Z,4.05
2022-08-25T03:58:14.332Z,4.05
2022-08-25T04:00:42.086Z,4.63
2022-08-25T04:03:09.060Z,4.05
2022-08-25T04:05:35.743Z,4.15
2022-08-25T04:08:03.047Z,4.32
2022-08-25T04:10:30.060Z,5.78
2022-08-25T04:12:57.431Z,4.75
2022-08-25T04:15:30.118Z,4.25
2022-08-25T04:17:58.821Z,4.40
2022-08-25T04:20:26.146Z,4.38
2022-08-25T04:22:52.911Z,4.30
2022-08-25T04:25:19.940Z,4.35
2022-08-25T04:27:46.954Z,4.70
2022-08-25T04:30:14.535Z,4.70
2022-08-25T04:32:41.283Z,4.47
2022-08-25T04:35:08.665Z,4.50
2022-08-25T04:37:35.333Z,4.20
2022-08-25T04:40:02.563Z,4.55
2022-08-25T04:42:29.394Z,4.47
2022-08-25T04:44:56.120Z,4.65
2022-08-25T04:47:23.155Z,4.28
2022-08-25T04:49:49.989Z,4.95
2022-08-25T04:52:16.651Z,4.40
2022-08-25T04:54:43.852Z,4.63
2022-08-25T04:57:10.703Z,4.30
2022-08-25T04:59:37.591Z,4.70
2022-08-25T05:02:06.361Z,4.32
2022-08-25T05:04:36.022Z,4.68
2022-08-25T05:07:03.503Z,5.13
2022-08-25T05:09:32.363Z,4.65
2022-08-25T05:12:00.003Z,4.55
2022-08-25T05:14:26.891Z,7.68
2022-08-25T05:16:54.734Z,4.97
2022-08-25T05:19:23.548Z,4.80
2022-08-25T05:21:51.052Z,4.55
2022-08-25T05:24:18.366Z,5.38
2022-08-25T05:26:45.231Z,4.35
2022-08-25T05:29:15.540Z,4.03
2022-08-25T05:31:48.222Z,4.65
2022-08-25T05:34:15.368Z,4.95
2022-08-25T05:36:43.335Z,5.72
2022-08-25T05:39:10.860Z,5.05
2022-08-25T05:41:38.077Z,4.63
2022-08-25T05:44:05.189Z,4.60
2022-08-25T05:46:32.177Z,7.90
2022-08-25T05:48:59.196Z,4.95
2022-08-25T05:51:26.485Z,4.53
2022-08-25T05:53:53.274Z,4.72
2022-08-25T05:56:20.470Z,4.53
2022-08-25T05:58:47.711Z,4.85
2022-08-25T06:01:46.767Z,4.80
2022-08-25T06:04:17.859Z,4.93
2022-08-25T06:06:44.601Z,5.28
2022-08-25T06:09:11.819Z,4.55
2022-08-25T06:11:40.467Z,5.20
2022-08-25T06:14:09.243Z,5.30
2022-08-25T06:16:36.149Z,4.97
2022-08-25T06:19:03.262Z,4.90
2022-08-25T06:21:30.456Z,4.68
2022-08-25T06:23:57.153Z,4.47
2022-08-25T06:26:24.416Z,4.70
2022-08-25T06:28:51.926Z,4.65
2022-08-25T06:31:19.837Z,5.65
2022-08-25T06:33:46.934Z,6.03
2022-08-25T06:36:14.269Z,5.55
2022-08-25T06:38:41.467Z,5.20
2022-08-25T06:41:10.672Z,4.90
2022-08-25T06:43:37.446Z,5.05
2022-08-25T06:46:15.635Z,5.50
2022-08-25T06:48:43.242Z,5.80
2022-08-25T06:51:13.949Z,6.65
2022-08-25T06:53:41.539Z,6.78
2022-08-25T06:56:08.882Z,6.13
2022-08-25T06:58:36.092Z,6.72
2022-08-25T07:01:20.556Z,6.22
2022-08-25T07:03:48.273Z,5.65
2022-08-25T07:06:16.593Z,6.10
2022-08-25T07:08:46.413Z,6.28
2022-08-25T07:11:17.310Z,5.82
2022-08-25T07:13:44.894Z,5.63
2022-08-25T07:16:11.897Z,5.95
2022-08-25T07:18:39.003Z,5.85
2022-08-25T07:21:09.112Z,5.05
2022-08-25T07:23:36.799Z,5.70
2022-08-25T07:29:14.863Z,5.45
2022-08-25T07:31:41.692Z,7.03
2022-08-25T07:34:27.633Z,5.65
2022-08-25T07:36:56.691Z,5.53
2022-08-25T07:39:25.210Z,5.10
2022-08-25T07:41:52.780Z,5.05
2022-08-25T07:44:24.390Z,7.00
2022-08-25T07:46:51.970Z,6.35
2022-08-25T07:49:23.391Z,6.10
2022-08-25T07:52:05.155Z,5.80
2022-08-25T07:54:35.121Z,5.47
2022-08-25T07:57:08.321Z,5.32
2022-08-25T07:59:40.262Z,6.82
2022-08-25T08:02:17.754Z,6.75
2022-08-25T08:04:48.770Z,6.75
2022-08-25T08:07:21.598Z,6.90
2022-08-25T08:09:56.038Z,5.97
2022-08-25T08:12:27.673Z,6.53
2022-08-25T08:14:54.666Z,6.25
2022-08-25T08:17:21.570Z,6.78
2022-08-25T08:19:48.351Z,6.88
2022-08-25T08:22:15.588Z,7.90
2022-08-25T08:24:54.500Z,7.03
2022-08-25T08:27:22.832Z,6.45
2022-08-25T08:29:50.018Z,7.25
2022-08-25T08:32:17.869Z,6.68
2022-08-25T08:34:46.966Z,7.22
2022-08-25T08:37:22.812Z,6.90
2022-08-25T08:39:51.284Z,5.65
2022-08-25T08:43:04.090Z,5.93
2022-08-25T08:45:52.084Z,7.05
2022-08-25T08:48:57.725Z,7.22
2022-08-25T08:51:33.448Z,7.50
2022-08-25T08:54:18.557Z,7.20
2022-08-25T08:56:49.318Z,6.32
2022-08-25T08:59:21.575Z,6.70
2022-08-25T09:01:56.637Z,5.45
2022-08-25T09:04:27.970Z,5.45
2022-08-25T09:06:57.248Z,5.80
2022-08-25T09:09:28.699Z,5.80
2022-08-25T09:12:01.288Z,5.60
2022-08-25T09:14:47.603Z,6.30
2022-08-25T09:17:41.939Z,6.30
2022-08-25T09:20:23.541Z,5.53
2022-08-25T09:22:56.295Z,5.37
2022-08-25T09:26:11.571Z,5.50
2022-08-25T09:28:41.669Z,5.68
2022-08-25T09:31:31.532Z,5.78
2022-08-25T09:34:02.278Z,5.10
2022-08-25T09:36:32.151Z,5.28
2022-08-25T09:39:01.158Z,5.45
2022-08-25T09:41:57.335Z,5.15
2022-08-25T09:44:31.587Z,5.30
2022-08-25T09:47:16.822Z,4.72
2022-08-25T09:49:49.172Z,4.80
2022-08-25T09:52:38.426Z,4.30
2022-08-25T09:55:08.127Z,4.38
2022-08-25T09:57:49.093Z,4.90
2022-08-25T10:00:21.456Z,4.90
2022-08-25T10:03:11.977Z,4.30
2022-08-25T10:05:40.949Z,4.47
2022-08-25T10:08:24.782Z,4.65
2022-08-25T10:10:58.156Z,4.55
2022-08-25T10:13:36.254Z,4.88
2022-08-25T10:16:20.314Z,4.35
2022-08-25T10:19:12.237Z,4.30
2022-08-25T10:21:41.815Z,4.60
2022-08-25T10:24:11.305Z,4.82
2022-08-25T10:26:47.563Z,4.07
2022-08-25T10:29:30.582Z,3.95
2022-08-25T10:32:01.331Z,4.50
2022-08-25T10:34:32.271Z,4.20
2022-08-25T10:37:32.883Z,4.03
2022-08-25T10:40:16.556Z,4.18
2022-08-25T10:43:08.444Z,4.30
2022-08-25T10:45:45.546Z,3.97
2022-08-25T10:48:15.512Z,3.47
2022-08-25T10:51:20.554Z,3.53
2022-08-25T10:54:20.400Z,4.07
2022-08-25T10:56:59.652Z,3.63
2022-08-25T11:00:19.216Z,4.05
2022-08-25T11:03:05.086Z,3.63
2022-08-25T11:05:59.970Z,4.05
2022-08-25T11:08:53.391Z,3.90
2022-08-25T11:11:30.866Z,3.25
2022-08-25T11:13:59.996Z,3.70
2022-08-25T11:16:35.593Z,3.35
2022-08-25T11:19:20.233Z,3.85
2022-08-25T11:22:04.375Z,3.70
2022-08-25T11:24:53.216Z,3.58
2022-08-25T11:27:30.977Z,3.83
2022-08-25T11:30:10.680Z,3.42
2022-08-25T11:32:39.342Z,3.80
2022-08-25T11:35:13.079Z,3.50
2022-08-25T11:38:04.831Z,3.60
2022-08-25T11:40:34.717Z,3.30
2022-08-25T11:43:14.143Z,3.65
2022-08-25T11:46:14.697Z,3.20
2022-08-25T11:48:52.416Z,3.00
2022-08-25T11:51:40.371Z,3.13
2022-08-25T11:54:21.659Z,3.42
2022-08-25T11:57:06.743Z,3.47
2022-08-25T11:59:49.757Z,3.90
2022-08-25T12:02:28.902Z,3.58
2022-08-25T12:04:56.298Z,3.50
2022-08-25T12:07:26.730Z,3.90
2022-08-25T12:09:57.092Z,3.45
2022-08-25T12:12:59.064Z,3.20
2022-08-25T12:15:31.197Z,3.40
2022-08-25T12:20:53.586Z,3.20
2022-08-25T12:23:36.355Z,3.55
2022-08-25T12:26:07.595Z,3.20
2022-08-25T12:28:48.510Z,3.47
2022-08-25T12:31:41.967Z,3.33
2022-08-25T12:34:31.763Z,3.40
2022-08-25T12:37:06.400Z,3.28
2022-08-25T12:39:43.211Z,3.72
2022-08-25T12:42:34.586Z,3.78
2022-08-25T12:45:20.177Z,3.27
2022-08-25T12:47:48.887Z,3.25
2022-08-25T12:50:36.010Z,3.40
2022-08-25T12:53:36.184Z,3.47
2022-08-25T12:56:07.748Z,3.00
2022-08-25T12:59:12.295Z,3.10
2022-08-25T13:01:51.735Z,2.88
2022-08-25T13:04:35.585Z,3.13
2022-08-25T13:07:09.923Z,3.22
2022-08-25T13:09:45.327Z,2.88
2022-08-25T13:12:26.859Z,2.60
2022-08-25T13:14:57.638Z,3.10
2022-08-25T13:17:34.955Z,3.20
2022-08-25T13:20:14.414Z,2.60
2022-08-25T13:22:44.696Z,2.85
2022-08-25T13:25:22.915Z,3.10
2022-08-25T13:27:56.055Z,3.30
2022-08-25T13:30:26.220Z,3.10
2022-08-25T13:32:52.920Z,2.72
2022-08-25T13:35:25.577Z,2.70
2022-08-25T13:37:54.683Z,2.42
2022-08-25T13:40:25.908Z,2.55
2022-08-25T13:45:31.711Z,2.35
2022-08-25T13:47:58.914Z,2.33
2022-08-25T13:50:26.426Z,2.50
2022-08-25T13:52:57.515Z,2.70
2022-08-25T13:55:50.549Z,2.42
2022-08-25T13:58:24.855Z,2.40
2022-08-25T14:01:22.707Z,2.65
2022-08-25T14:04:50.574Z,2.75
2022-08-25T14:07:22.288Z,2.70
2022-08-25T14:09:53.677Z,2.58
2022-08-25T14:12:33.700Z,2.60
2022-08-25T14:15:07.389Z,2.50
2022-08-25T14:17:39.067Z,2.50
2022-08-25T14:20:28.583Z,2.40
2022-08-25T14:23:02.690Z,2.55
2022-08-25T14:25:31.198Z,2.40
2022-08-25T14:28:08.585Z,2.45
2022-08-25T14:30:52.396Z,2.30
2022-08-25T14:33:23.519Z,2.45
2022-08-25T14:35:53.648Z,2.60
2022-08-25T14:38:21.448Z,2.53
2022-08-25T14:40:50.209Z,2.40
2022-08-25T14:43:17.332Z,2.60
2022-08-25T14:45:48.212Z,2.50
2022-08-25T14:48:24.107Z,2.38
2022-08-25T14:50:52.254Z,2.30
2022-08-25T14:53:18.947Z,2.05
2022-08-25T14:55:45.833Z,2.50
2022-08-25T14:58:12.538Z,2.35
2022-08-25T15:00:44.878Z,2.30
2022-08-25T15:03:17.635Z,2.60
2022-08-25T15:05:44.966Z,2.60
2022-08-25T15:08:33.210Z,2.35
2022-08-25T15:11:00.535Z,2.33
2022-08-25T15:13:27.425Z,2.50
2022-08-25T15:15:55.063Z,2.70
2022-08-25T15:18:25.693Z,2.13
2022-08-25T15:20:52.354Z,2.10
2022-08-25T15:23:19.888Z,2.40
2022-08-25T15:25:48.874Z,2.47
2022-08-25T15:28:21.919Z,2.65
2022-08-25T15:30:49.527Z,2.20
2022-08-25T15:33:17.252Z,2.47
2022-08-25T15:35:44.074Z,2.55
2022-08-25T15:38:12.499Z,2.50
2022-08-25T15:40:39.677Z,2.30
2022-08-25T15:43:07.406Z,2.50
2022-08-25T15:45:36.389Z,3.10
2022-08-25T15:48:06.710Z,2.70
2022-08-25T15:50:36.292Z,2.50
2022-08-25T15:53:03.156Z,2.55
2022-08-25T15:55:30.437Z,2.40
2022-08-25T15:58:00.862Z,2.13
2022-08-25T16:00:27.608Z,2.58
2022-08-25T16:02:58.641Z,2.85
2022-08-25T16:05:26.216Z,2.50
2022-08-25T16:07:53.758Z,2.42
2022-08-25T16:10:20.989Z,4.82
2022-08-25T16:12:48.696Z,3.60
2022-08-25T16:15:15.937Z,2.80
2022-08-25T16:17:45.092Z,2.55
2022-08-25T16:20:16.303Z,2.38
2022-08-25T16:22:44.691Z,2.47
2022-08-25T16:25:11.825Z,2.35
2022-08-25T16:27:39.258Z,2.40
2022-08-25T16:30:08.319Z,2.60
2022-08-25T16:32:36.438Z,2.33
2022-08-25T16:35:04.615Z,2.35
2022-08-25T16:37:33.547Z,2.53
2022-08-25T16:40:01.084Z,2.35
2022-08-25T16:42:28.519Z,2.70
2022-08-25T16:44:55.587Z,2.60
2022-08-25T16:47:26.893Z,2.17
2022-08-25T16:49:54.176Z,2.42
2022-08-25T16:52:40.736Z,2.42
2022-08-25T16:55:14.344Z,2.40
2022-08-25T16:57:55.385Z,2.70
2022-08-25T17:00:28.539Z,2.40
2022-08-25T17:03:00.003Z,2.63
2022-08-25T17:05:29.319Z,2.47
2022-08-25T17:08:17.679Z,2.17
2022-08-25T17:10:44.536Z,2.53
2022-08-25T17:13:12.724Z,2.38
2022-08-25T17:15:45.673Z,2.75
2022-08-25T17:18:13.602Z,2.88
2022-08-25T17:20:43.209Z,2.55
2022-08-25T17:23:12.033Z,2.92
2022-08-25T17:25:43.226Z,2.13
2022-08-25T17:28:12.018Z,2.63
2022-08-25T17:30:39.364Z,2.50
2022-08-25T17:33:06.127Z,2.40
2022-08-25T17:35:39.437Z,2.78
2022-08-25T17:38:06.566Z,2.55
2022-08-25T17:40:33.848Z,2.67
2022-08-25T17:43:01.847Z,2.78
2022-08-25T17:45:29.934Z,2.55
2022-08-25T17:47:57.850Z,2.60
2022-08-25T17:50:25.472Z,2.65
2022-08-25T17:52:53.102Z,2.50
2022-08-25T17:55:24.158Z,3.63
2022-08-25T17:57:52.171Z,3.53
2022-08-25T18:00:21.846Z,3.08
2022-08-25T18:02:49.151Z,3.42
2022-08-25T18:05:16.567Z,3.20
2022-08-25T18:07:43.958Z,3.17
2022-08-25T18:10:12.744Z,2.60
2022-08-25T18:12:39.873Z,3.60
2022-08-25T18:15:08.126Z,3.15
2022-08-25T18:17:36.350Z,3.15
2022-08-25T18:20:11.465Z,3.83
2022-08-25T18:22:38.695Z,4.18
2022-08-25T18:25:07.274Z,4.10
2022-08-25T18:27:35.228Z,3.85
2022-08-25T18:30:04.914Z,4.03
2022-08-25T18:32:31.672Z,3.67
2022-08-25T18:34:58.701Z,3.78
2022-08-25T18:37:44.478Z,3.90
2022-08-25T18:40:24.320Z,3.97
2022-08-25T18:43:00.352Z,3.33
2022-08-25T18:45:31.990Z,3.85
2022-08-25T18:48:00.871Z,3.78
2022-08-25T18:50:33.397Z,3.83
2022-08-25T18:53:00.305Z,4.82
2022-08-25T18:55:27.133Z,4.95
2022-08-25T18:57:55.305Z,5.10
2022-08-25T19:00:25.599Z,4.32
2022-08-25T19:02:55.709Z,4.60
2022-08-25T19:05:34.629Z,4.90
2022-08-25T19:08:03.286Z,5.43
2022-08-25T19:10:31.183Z,4.95
2022-08-25T19:12:59.219Z,4.70
2022-08-25T19:15:35.890Z,5.05
2022-08-25T19:18:06.820Z,4.80
2022-08-25T19:20:37.245Z,4.88
2022-08-25T19:23:04.386Z,5.25
2022-08-25T19:25:34.754Z,4.28
2022-08-25T19:28:05.554Z,4.68
2022-08-25T19:30:34.099Z,5.07
2022-08-25T19:33:01.683Z,4.00
2022-08-25T19:35:46.128Z,3.80
2022-08-25T19:38:33.349Z,3.85
2022-08-25T19:41:01.249Z,3.30
2022-08-25T19:43:28.252Z,3.97
2022-08-25T19:45:55.028Z,3.58
2022-08-25T19:48:21.835Z,3.45
2022-08-25T19:50:56.211Z,4.00
2022-08-25T19:53:23.111Z,3.70
2022-08-25T19:55:50.231Z,3.42
2022-08-25T19:58:17.880Z,3.88
2022-08-25T20:00:48.255Z,3.50
2022-08-25T20:03:20.350Z,3.45
2022-08-25T20:05:49.086Z,3.55
2022-08-25T20:08:16.099Z,4.38
2022-08-25T20:10:42.859Z,3.85
2022-08-25T20:13:09.601Z,4.03
2022-08-25T20:15:38.001Z,4.10
2022-08-25T20:18:06.201Z,3.78
2022-08-25T20:20:35.489Z,4.10
2022-08-25T20:23:21.505Z,3.85
2022-08-25T20:25:50.212Z,3.75
2022-08-25T20:28:18.612Z,4.05
2022-08-25T20:30:46.061Z,3.80
2022-08-25T20:33:13.114Z,3.88
2022-08-25T20:35:39.817Z,4.28
2022-08-25T20:38:07.731Z,3.60
2022-08-25T20:40:34.960Z,3.47
2022-08-25T20:43:04.312Z,2.83
2022-08-25T20:45:31.744Z,3.28
2022-08-25T20:47:58.695Z,3.00
2022-08-25T20:50:28.277Z,3.78
2022-08-25T20:52:56.702Z,4.13
2022-08-25T20:55:24.454Z,3.97
2022-08-25T20:57:53.343Z,3.63
2022-08-25T21:00:23.597Z,3.92
2022-08-25T21:02:52.689Z,4.00
2022-08-25T21:05:19.767Z,4.22
2022-08-25T21:07:46.514Z,4.18
2022-08-25T21:10:16.014Z,4.15
2022-08-25T21:12:43.122Z,3.90
2022-08-25T21:15:11.101Z,4.22
2022-08-25T21:17:38.548Z,4.43
2022-08-25T21:20:07.765Z,3.92
2022-08-25T21:22:35.370Z,4.00
2022-08-25T21:25:03.581Z,4.32
2022-08-25T21:27:31.623Z,4.03
2022-08-25T21:29:58.363Z,4.35
2022-08-25T21:32:25.103Z,3.63
2022-08-25T21:34:55.487Z,4.15
2022-08-25T21:37:23.945Z,3.90
2022-08-25T21:39:51.244Z,4.28
2022-08-25T21:42:19.794Z,4.13
2022-08-25T21:44:46.741Z,4.50
2022-08-25T21:47:13.700Z,3.95
2022-08-25T21:49:41.669Z,5.88
2022-08-25T21:52:08.865Z,4.38
2022-08-25T21:54:35.727Z,4.30
2022-08-25T21:57:05.786Z,4.57
2022-08-25T21:59:35.601Z,4.63
2022-08-25T22:02:06.081Z,4.75
2022-08-25T22:04:32.991Z,4.80
2022-08-25T22:07:00.522Z,3.97
2022-08-25T22:09:28.177Z,3.97
2022-08-25T22:11:57.403Z,3.97
2022-08-25T22:14:26.059Z,4.28
2022-08-25T22:16:54.132Z,4.13
2022-08-25T22:19:21.474Z,4.30
2022-08-25T22:21:51.030Z,4.35
2022-08-25T22:24:18.664Z,4.47
2022-08-25T22:26:47.665Z,4.30
2022-08-25T22:29:25.572Z,4.90
2022-08-25T22:32:02.470Z,4.43
2022-08-25T22:34:32.913Z,4.40
2022-08-25T22:37:04.494Z,3.95
2022-08-25T22:39:32.526Z,4.10
2022-08-25T22:42:01.858Z,4.18
2022-08-25T22:44:28.785Z,4.07
2022-08-25T22:46:55.471Z,4.30
2022-08-25T22:49:23.571Z,4.13
2022-08-25T22:51:50.326Z,4.38
2022-08-25T22:54:17.761Z,3.88
2022-08-25T22:56:44.573Z,4.05
2022-08-25T22:59:13.472Z,4.45
2022-08-25T23:01:42.582Z,4.50
2022-08-25T23:04:09.887Z,4.47
2022-08-25T23:06:37.779Z,4.07
2022-08-25T23:09:06.661Z,4.10
2022-08-25T23:11:33.452Z,4.63
2022-08-25T23:14:00.582Z,4.10
2022-08-25T23:16:28.642Z,4.60
2022-08-25T23:18:55.563Z,4.35
2022-08-25T23:21:42.452Z,4.18
2022-08-25T23:24:11.227Z,4.10
2022-08-25T23:26:42.485Z,4.30
2022-08-25T23:29:18.062Z,4.63
2022-08-25T23:31:46.602Z,4.20
2022-08-25T23:34:14.001Z,4.65
2022-08-25T23:36:41.094Z,4.63
2022-08-25T23:39:09.494Z,4.15
2022-08-25T23:41:36.926Z,4.13
2022-08-25T23:44:05.426Z,4.22
2022-08-25T23:46:34.774Z,4.50
2022-08-25T23:49:02.475Z,4.30
2022-08-25T23:51:37.219Z,4.57
2022-08-25T23:54:07.064Z,4.00
2022-08-25T23:56:36.874Z,4.30
2022-08-25T23:59:10.659Z,4.15
